Terminal Aerodrome Forecast
Issued by NWS Caribou, ME

Home | Current Version | Previous Version | Text Only | Print | Product List | Glossary On
Versions: 1 2 3 4 5 6 7 8 9 10 11 12 13 14 15 16 17 18 19
000
FTUS41 KCAR 240737 AAB
TAFCAR
TAF AMD
KCAR 240737Z 2408/2506 17006KT 2SM BR BKN200
     FM241000 18005KT 3SM BR OVC008
     FM241400 18010KT P6SM OVC015
     FM241600 18010G16KT P6SM OVC025
     FM242300 16012KT 6SM -DZ OVC015=

USA.gov is the U.S. government's official web portal to all federal, state and local government web resources and services.